sensor_id;sensor_type;location;lat;lon;timestamp;P1;durP1;ratioP1;P2;durP2;ratioP2
5833;SDS011;2943;48.012;10.968;2024-02-14T00:00:13;13.70;;;6.47;;
5833;SDS011;2943;48.012;10.968;2024-02-14T00:02:40;10.07;;;6.80;;
5833;SDS011;2943;48.012;10.968;2024-02-14T00:05:07;9.10;;;6.10;;
5833;SDS011;2943;48.012;10.968;2024-02-14T00:07:36;10.30;;;6.33;;
5833;SDS011;2943;48.012;10.968;2024-02-14T00:10:03;8.97;;;6.90;;
5833;SDS011;2943;48.012;10.968;2024-02-14T00:12:31;11.33;;;8.00;;
5833;SDS011;2943;48.012;10.968;2024-02-14T00:14:58;9.13;;;6.00;;
5833;SDS011;2943;48.012;10.968;2024-02-14T00:17:26;12.00;;;5.40;;
5833;SDS011;2943;48.012;10.968;2024-02-14T00:19:53;7.20;;;5.10;;
5833;SDS011;2943;48.012;10.968;2024-02-14T00:22:20;6.40;;;5.10;;
5833;SDS011;2943;48.012;10.968;2024-02-14T00:24:47;7.43;;;5.10;;
5833;SDS011;2943;48.012;10.968;2024-02-14T00:27:15;7.00;;;5.23;;
5833;SDS011;2943;48.012;10.968;2024-02-14T00:29:42;10.10;;;5.83;;
5833;SDS011;2943;48.012;10.968;2024-02-14T00:32:10;11.50;;;6.10;;
5833;SDS011;2943;48.012;10.968;2024-02-14T00:34:39;6.40;;;5.50;;
5833;SDS011;2943;48.012;10.968;2024-02-14T00:37:06;8.00;;;6.30;;
5833;SDS011;2943;48.012;10.968;2024-02-14T00:39:33;8.20;;;6.10;;
5833;SDS011;2943;48.012;10.968;2024-02-14T00:41:59;8.40;;;5.70;;
5833;SDS011;2943;48.012;10.968;2024-02-14T00:44:26;7.93;;;5.43;;
5833;SDS011;2943;48.012;10.968;2024-02-14T00:46:55;7.63;;;5.27;;
5833;SDS011;2943;48.012;10.968;2024-02-14T00:49:24;5.30;;;4.63;;
5833;SDS011;2943;48.012;10.968;2024-02-14T00:51:52;6.57;;;4.10;;
5833;SDS011;2943;48.012;10.968;2024-02-14T00:54:19;6.07;;;4.40;;
5833;SDS011;2943;48.012;10.968;2024-02-14T00:56:46;8.63;;;5.30;;
5833;SDS011;2943;48.012;10.968;2024-02-14T00:59:13;8.00;;;4.50;;
5833;SDS011;2943;48.012;10.968;2024-02-14T01:01:41;6.27;;;4.70;;
5833;SDS011;2943;48.012;10.968;2024-02-14T01:04:09;4.43;;;4.00;;
5833;SDS011;2943;48.012;10.968;2024-02-14T01:06:36;7.30;;;5.10;;
5833;SDS011;2943;48.012;10.968;2024-02-14T01:09:04;9.00;;;4.87;;
5833;SDS011;2943;48.012;10.968;2024-02-14T01:11:31;4.67;;;3.90;;
5833;SDS011;2943;48.012;10.968;2024-02-14T01:13:58;5.70;;;4.27;;
5833;SDS011;2943;48.012;10.968;2024-02-14T01:16:26;5.70;;;4.57;;
5833;SDS011;2943;48.012;10.968;2024-02-14T01:18:53;5.40;;;4.40;;
5833;SDS011;2943;48.012;10.968;2024-02-14T01:21:20;6.83;;;4.33;;
5833;SDS011;2943;48.012;10.968;2024-02-14T01:23:47;6.10;;;4.43;;
5833;SDS011;2943;48.012;10.968;2024-02-14T01:26:15;7.03;;;5.17;;
5833;SDS011;2943;48.012;10.968;2024-02-14T01:28:42;6.37;;;5.27;;
5833;SDS011;2943;48.012;10.968;2024-02-14T01:31:09;6.10;;;4.70;;
5833;SDS011;2943;48.012;10.968;2024-02-14T01:33:37;9.53;;;5.23;;
5833;SDS011;2943;48.012;10.968;2024-02-14T01:36:05;5.37;;;4.13;;
5833;SDS011;2943;48.012;10.968;2024-02-14T01:38:32;7.87;;;4.97;;
5833;SDS011;2943;48.012;10.968;2024-02-14T01:41:01;7.17;;;4.83;;
5833;SDS011;2943;48.012;10.968;2024-02-14T01:43:30;7.47;;;4.87;;
5833;SDS011;2943;48.012;10.968;2024-02-14T01:45:57;7.10;;;4.40;;
5833;SDS011;2943;48.012;10.968;2024-02-14T01:48:31;4.90;;;4.40;;
5833;SDS011;2943;48.012;10.968;2024-02-14T01:50:59;6.00;;;4.30;;
5833;SDS011;2943;48.012;10.968;2024-02-14T01:53:28;5.43;;;4.13;;
5833;SDS011;2943;48.012;10.968;2024-02-14T01:55:56;6.33;;;4.20;;
5833;SDS011;2943;48.012;10.968;2024-02-14T01:58:23;5.07;;;4.30;;
5833;SDS011;2943;48.012;10.968;2024-02-14T02:00:52;5.13;;;4.00;;
5833;SDS011;2943;48.012;10.968;2024-02-14T02:03:22;3.83;;;3.53;;
5833;SDS011;2943;48.012;10.968;2024-02-14T02:05:50;4.23;;;3.07;;
5833;SDS011;2943;48.012;10.968;2024-02-14T02:08:18;3.10;;;2.80;;
5833;SDS011;2943;48.012;10.968;2024-02-14T02:10:46;5.80;;;3.47;;
5833;SDS011;2943;48.012;10.968;2024-02-14T02:13:13;5.93;;;3.80;;
5833;SDS011;2943;48.012;10.968;2024-02-14T02:15:41;4.07;;;3.63;;
5833;SDS011;2943;48.012;10.968;2024-02-14T02:18:12;5.00;;;3.43;;
5833;SDS011;2943;48.012;10.968;2024-02-14T02:20:40;3.37;;;3.07;;
5833;SDS011;2943;48.012;10.968;2024-02-14T02:23:09;3.50;;;3.10;;
5833;SDS011;2943;48.012;10.968;2024-02-14T02:25:39;4.40;;;3.00;;
5833;SDS011;2943;48.012;10.968;2024-02-14T02:28:07;3.80;;;3.07;;
5833;SDS011;2943;48.012;10.968;2024-02-14T02:30:34;4.00;;;3.13;;
5833;SDS011;2943;48.012;10.968;2024-02-14T02:33:03;3.87;;;3.00;;
5833;SDS011;2943;48.012;10.968;2024-02-14T02:35:32;4.60;;;3.30;;
5833;SDS011;2943;48.012;10.968;2024-02-14T02:44:57;4.90;;;3.27;;
5833;SDS011;2943;48.012;10.968;2024-02-14T02:47:24;3.20;;;2.90;;
5833;SDS011;2943;48.012;10.968;2024-02-14T02:49:51;6.00;;;2.97;;
5833;SDS011;2943;48.012;10.968;2024-02-14T02:52:18;6.40;;;4.40;;
5833;SDS011;2943;48.012;10.968;2024-02-14T02:54:46;7.87;;;4.80;;
5833;SDS011;2943;48.012;10.968;2024-02-14T02:57:13;5.83;;;3.57;;
5833;SDS011;2943;48.012;10.968;2024-02-14T02:59:40;4.87;;;3.27;;
5833;SDS011;2943;48.012;10.968;2024-02-14T03:02:10;4.03;;;3.10;;
5833;SDS011;2943;48.012;10.968;2024-02-14T03:04:38;4.23;;;2.90;;
5833;SDS011;2943;48.012;10.968;2024-02-14T03:07:05;4.90;;;3.20;;
5833;SDS011;2943;48.012;10.968;2024-02-14T03:09:35;3.80;;;2.70;;
5833;SDS011;2943;48.012;10.968;2024-02-14T03:12:02;3.20;;;2.63;;
5833;SDS011;2943;48.012;10.968;2024-02-14T03:14:29;5.80;;;3.30;;
5833;SDS011;2943;48.012;10.968;2024-02-14T03:16:57;4.40;;;2.90;;
5833;SDS011;2943;48.012;10.968;2024-02-14T03:19:26;6.00;;;3.40;;
5833;SDS011;2943;48.012;10.968;2024-02-14T03:21:54;3.20;;;2.67;;
5833;SDS011;2943;48.012;10.968;2024-02-14T03:24:21;3.20;;;2.57;;
5833;SDS011;2943;48.012;10.968;2024-02-14T03:26:51;3.60;;;2.63;;
5833;SDS011;2943;48.012;10.968;2024-02-14T03:29:18;3.17;;;2.57;;
5833;SDS011;2943;48.012;10.968;2024-02-14T03:31:45;3.63;;;2.60;;
5833;SDS011;2943;48.012;10.968;2024-02-14T03:34:12;13.93;;;2.43;;
5833;SDS011;2943;48.012;10.968;2024-02-14T03:36:42;3.10;;;2.30;;
5833;SDS011;2943;48.012;10.968;2024-02-14T03:39:09;2.10;;;1.90;;
5833;SDS011;2943;48.012;10.968;2024-02-14T03:41:36;2.47;;;1.93;;
5833;SDS011;2943;48.012;10.968;2024-02-14T03:44:04;4.77;;;2.43;;
5833;SDS011;2943;48.012;10.968;2024-02-14T03:46:34;3.80;;;2.10;;
5833;SDS011;2943;48.012;10.968;2024-02-14T03:49:01;4.90;;;2.33;;
5833;SDS011;2943;48.012;10.968;2024-02-14T03:51:28;2.40;;;1.93;;
5833;SDS011;2943;48.012;10.968;2024-02-14T03:53:57;2.63;;;2.50;;
5833;SDS011;2943;48.012;10.968;2024-02-14T03:56:24;1.70;;;1.60;;
5833;SDS011;2943;48.012;10.968;2024-02-14T03:58:55;2.93;;;2.33;;
5833;SDS011;2943;48.012;10.968;2024-02-14T04:01:22;5.07;;;2.20;;
5833;SDS011;2943;48.012;10.968;2024-02-14T04:03:49;2.17;;;2.07;;
5833;SDS011;2943;48.012;10.968;2024-02-14T04:06:19;3.00;;;2.00;;
5833;SDS011;2943;48.012;10.968;2024-02-14T04:08:45;3.50;;;1.83;;
5833;SDS011;2943;48.012;10.968;2024-02-14T04:11:14;2.50;;;2.10;;
5833;SDS011;2943;48.012;10.968;2024-02-14T04:13:41;2.17;;;2.07;;
5833;SDS011;2943;48.012;10.968;2024-02-14T04:16:08;4.57;;;2.37;;
5833;SDS011;2943;48.012;10.968;2024-02-14T04:18:35;3.67;;;2.00;;
5833;SDS011;2943;48.012;10.968;2024-02-14T04:21:02;4.13;;;2.30;;
5833;SDS011;2943;48.012;10.968;2024-02-14T04:23:30;3.20;;;2.50;;
5833;SDS011;2943;48.012;10.968;2024-02-14T04:25:59;2.47;;;2.23;;
5833;SDS011;2943;48.012;10.968;2024-02-14T04:28:27;3.13;;;2.20;;
5833;SDS011;2943;48.012;10.968;2024-02-14T04:30:54;2.33;;;2.10;;
5833;SDS011;2943;48.012;10.968;2024-02-14T04:33:21;3.73;;;2.33;;
5833;SDS011;2943;48.012;10.968;2024-02-14T04:35:50;3.07;;;2.33;;
5833;SDS011;2943;48.012;10.968;2024-02-14T04:38:17;3.33;;;2.40;;
5833;SDS011;2943;48.012;10.968;2024-02-14T04:40:44;2.90;;;2.50;;
5833;SDS011;2943;48.012;10.968;2024-02-14T04:43:15;3.43;;;2.50;;
5833;SDS011;2943;48.012;10.968;2024-02-14T04:45:43;5.07;;;2.40;;
5833;SDS011;2943;48.012;10.968;2024-02-14T04:48:14;2.13;;;2.00;;
5833;SDS011;2943;48.012;10.968;2024-02-14T04:50:41;3.70;;;2.23;;
5833;SDS011;2943;48.012;10.968;2024-02-14T04:53:09;1.90;;;1.80;;
5833;SDS011;2943;48.012;10.968;2024-02-14T04:55:36;5.67;;;2.50;;
5833;SDS011;2943;48.012;10.968;2024-02-14T04:58:02;2.70;;;2.13;;
5833;SDS011;2943;48.012;10.968;2024-02-14T05:00:30;4.00;;;2.50;;
5833;SDS011;2943;48.012;10.968;2024-02-14T05:02:58;2.37;;;1.93;;
5833;SDS011;2943;48.012;10.968;2024-02-14T05:05:26;2.93;;;1.93;;
5833;SDS011;2943;48.012;10.968;2024-02-14T05:07:53;2.67;;;2.00;;
5833;SDS011;2943;48.012;10.968;2024-02-14T05:10:20;9.00;;;2.10;;
5833;SDS011;2943;48.012;10.968;2024-02-14T05:12:47;3.83;;;2.63;;
5833;SDS011;2943;48.012;10.968;2024-02-14T05:15:15;2.03;;;1.93;;
5833;SDS011;2943;48.012;10.968;2024-02-14T05:17:42;3.00;;;2.10;;
5833;SDS011;2943;48.012;10.968;2024-02-14T05:20:12;3.27;;;2.20;;
5833;SDS011;2943;48.012;10.968;2024-02-14T05:22:39;2.60;;;2.03;;
5833;SDS011;2943;48.012;10.968;2024-02-14T05:25:07;3.03;;;2.17;;
5833;SDS011;2943;48.012;10.968;2024-02-14T05:27:35;3.50;;;1.93;;
5833;SDS011;2943;48.012;10.968;2024-02-14T05:30:03;4.37;;;2.10;;
5833;SDS011;2943;48.012;10.968;2024-02-14T05:32:31;3.33;;;2.37;;
5833;SDS011;2943;48.012;10.968;2024-02-14T05:34:59;6.53;;;1.70;;
5833;SDS011;2943;48.012;10.968;2024-02-14T05:37:28;4.47;;;3.30;;
5833;SDS011;2943;48.012;10.968;2024-02-14T05:39:58;2.20;;;2.00;;
5833;SDS011;2943;48.012;10.968;2024-02-14T05:42:25;2.30;;;2.00;;
5833;SDS011;2943;48.012;10.968;2024-02-14T05:44:53;2.30;;;2.10;;
5833;SDS011;2943;48.012;10.968;2024-02-14T05:47:20;3.83;;;2.50;;
5833;SDS011;2943;48.012;10.968;2024-02-14T05:49:47;2.50;;;2.30;;
5833;SDS011;2943;48.012;10.968;2024-02-14T05:52:16;2.97;;;2.40;;
5833;SDS011;2943;48.012;10.968;2024-02-14T05:54:48;2.97;;;2.70;;
5833;SDS011;2943;48.012;10.968;2024-02-14T05:57:16;5.33;;;3.27;;
5833;SDS011;2943;48.012;10.968;2024-02-14T05:59:43;4.53;;;2.20;;
5833;SDS011;2943;48.012;10.968;2024-02-14T06:02:10;4.57;;;2.17;;
5833;SDS011;2943;48.012;10.968;2024-02-14T06:04:37;3.30;;;2.53;;
5833;SDS011;2943;48.012;10.968;2024-02-14T06:07:05;7.23;;;2.60;;
5833;SDS011;2943;48.012;10.968;2024-02-14T06:09:35;3.73;;;2.63;;
5833;SDS011;2943;48.012;10.968;2024-02-14T06:12:06;6.87;;;3.13;;
5833;SDS011;2943;48.012;10.968;2024-02-14T06:14:33;3.17;;;2.40;;
5833;SDS011;2943;48.012;10.968;2024-02-14T06:17:00;4.57;;;2.53;;
5833;SDS011;2943;48.012;10.968;2024-02-14T06:19:29;2.77;;;2.40;;
5833;SDS011;2943;48.012;10.968;2024-02-14T06:22:00;3.90;;;2.63;;
5833;SDS011;2943;48.012;10.968;2024-02-14T06:24:28;4.63;;;2.50;;
5833;SDS011;2943;48.012;10.968;2024-02-14T06:26:55;2.70;;;2.50;;
5833;SDS011;2943;48.012;10.968;2024-02-14T06:29:25;5.23;;;2.17;;
5833;SDS011;2943;48.012;10.968;2024-02-14T06:31:52;4.67;;;2.40;;
5833;SDS011;2943;48.012;10.968;2024-02-14T06:34:20;4.50;;;2.40;;
5833;SDS011;2943;48.012;10.968;2024-02-14T06:36:48;3.37;;;2.20;;
5833;SDS011;2943;48.012;10.968;2024-02-14T06:39:15;4.10;;;2.30;;
5833;SDS011;2943;48.012;10.968;2024-02-14T06:41:42;3.10;;;2.50;;
5833;SDS011;2943;48.012;10.968;2024-02-14T06:44:10;3.10;;;2.40;;
5833;SDS011;2943;48.012;10.968;2024-02-14T06:46:38;2.87;;;2.20;;
5833;SDS011;2943;48.012;10.968;2024-02-14T06:49:06;8.83;;;2.40;;
5833;SDS011;2943;48.012;10.968;2024-02-14T06:51:34;5.43;;;2.27;;
5833;SDS011;2943;48.012;10.968;2024-02-14T06:54:03;10.50;;;2.90;;
5833;SDS011;2943;48.012;10.968;2024-02-14T06:56:30;3.13;;;2.30;;
5833;SDS011;2943;48.012;10.968;2024-02-14T06:58:57;5.83;;;2.63;;
5833;SDS011;2943;48.012;10.968;2024-02-14T07:01:28;3.53;;;2.90;;
5833;SDS011;2943;48.012;10.968;2024-02-14T07:03:57;4.43;;;2.90;;
5833;SDS011;2943;48.012;10.968;2024-02-14T07:06:28;3.97;;;3.67;;
5833;SDS011;2943;48.012;10.968;2024-02-14T07:08:55;6.03;;;3.10;;
5833;SDS011;2943;48.012;10.968;2024-02-14T07:11:22;3.87;;;2.77;;
5833;SDS011;2943;48.012;10.968;2024-02-14T07:13:50;4.73;;;3.03;;
5833;SDS011;2943;48.012;10.968;2024-02-14T07:16:17;5.20;;;4.13;;
5833;SDS011;2943;48.012;10.968;2024-02-14T07:18:46;4.67;;;3.27;;
5833;SDS011;2943;48.012;10.968;2024-02-14T07:21:15;4.90;;;3.50;;
5833;SDS011;2943;48.012;10.968;2024-02-14T07:23:43;3.10;;;2.87;;
5833;SDS011;2943;48.012;10.968;2024-02-14T07:26:10;3.40;;;2.43;;
5833;SDS011;2943;48.012;10.968;2024-02-14T07:28:38;3.70;;;2.47;;
5833;SDS011;2943;48.012;10.968;2024-02-14T07:31:06;2.77;;;2.50;;
5833;SDS011;2943;48.012;10.968;2024-02-14T07:33:33;2.63;;;2.40;;
5833;SDS011;2943;48.012;10.968;2024-02-14T07:36:00;4.43;;;2.80;;
5833;SDS011;2943;48.012;10.968;2024-02-14T07:38:29;4.27;;;2.83;;
5833;SDS011;2943;48.012;10.968;2024-02-14T07:40:56;5.47;;;3.03;;
5833;SDS011;2943;48.012;10.968;2024-02-14T07:43:23;5.80;;;3.60;;
5833;SDS011;2943;48.012;10.968;2024-02-14T07:45:49;4.70;;;2.80;;
5833;SDS011;2943;48.012;10.968;2024-02-14T07:48:17;2.57;;;2.00;;
5833;SDS011;2943;48.012;10.968;2024-02-14T07:50:44;4.03;;;2.93;;
5833;SDS011;2943;48.012;10.968;2024-02-14T07:53:11;2.83;;;2.57;;
5833;SDS011;2943;48.012;10.968;2024-02-14T07:55:39;4.07;;;2.60;;
5833;SDS011;2943;48.012;10.968;2024-02-14T07:58:07;3.20;;;2.90;;
5833;SDS011;2943;48.012;10.968;2024-02-14T08:00:34;2.03;;;1.90;;
5833;SDS011;2943;48.012;10.968;2024-02-14T08:03:01;2.67;;;2.07;;
5833;SDS011;2943;48.012;10.968;2024-02-14T08:05:31;4.50;;;2.60;;
5833;SDS011;2943;48.012;10.968;2024-02-14T08:07:58;2.00;;;1.90;;
5833;SDS011;2943;48.012;10.968;2024-02-14T08:10:26;20.10;;;2.53;;
5833;SDS011;2943;48.012;10.968;2024-02-14T08:12:57;2.40;;;1.80;;
5833;SDS011;2943;48.012;10.968;2024-02-14T08:15:24;3.30;;;1.70;;
5833;SDS011;2943;48.012;10.968;2024-02-14T08:17:51;1.83;;;1.73;;
5833;SDS011;2943;48.012;10.968;2024-02-14T08:20:21;2.00;;;1.83;;
5833;SDS011;2943;48.012;10.968;2024-02-14T08:22:49;2.33;;;1.87;;
5833;SDS011;2943;48.012;10.968;2024-02-14T08:25:17;3.33;;;2.10;;
5833;SDS011;2943;48.012;10.968;2024-02-14T08:27:44;2.83;;;1.90;;
5833;SDS011;2943;48.012;10.968;2024-02-14T08:30:12;4.33;;;2.00;;
5833;SDS011;2943;48.012;10.968;2024-02-14T08:32:40;2.03;;;1.83;;
5833;SDS011;2943;48.012;10.968;2024-02-14T08:35:07;2.10;;;1.97;;
5833;SDS011;2943;48.012;10.968;2024-02-14T08:37:36;2.23;;;2.03;;
5833;SDS011;2943;48.012;10.968;2024-02-14T08:40:05;3.90;;;2.00;;
5833;SDS011;2943;48.012;10.968;2024-02-14T08:42:33;2.10;;;1.77;;
5833;SDS011;2943;48.012;10.968;2024-02-14T08:45:01;2.20;;;2.00;;
5833;SDS011;2943;48.012;10.968;2024-02-14T08:47:30;3.23;;;1.70;;
5833;SDS011;2943;48.012;10.968;2024-02-14T08:49:57;2.03;;;1.80;;
5833;SDS011;2943;48.012;10.968;2024-02-14T08:52:24;3.53;;;1.67;;
5833;SDS011;2943;48.012;10.968;2024-02-14T08:54:52;2.03;;;1.57;;
5833;SDS011;2943;48.012;10.968;2024-02-14T08:57:18;1.90;;;1.80;;
5833;SDS011;2943;48.012;10.968;2024-02-14T08:59:48;5.23;;;1.87;;
5833;SDS011;2943;48.012;10.968;2024-02-14T09:02:16;2.60;;;1.80;;
5833;SDS011;2943;48.012;10.968;2024-02-14T09:04:47;4.83;;;1.50;;
5833;SDS011;2943;48.012;10.968;2024-02-14T09:07:17;1.47;;;1.37;;
5833;SDS011;2943;48.012;10.968;2024-02-14T09:09:43;1.70;;;1.60;;
5833;SDS011;2943;48.012;10.968;2024-02-14T09:12:11;2.87;;;1.80;;
5833;SDS011;2943;48.012;10.968;2024-02-14T09:14:38;2.00;;;1.60;;
5833;SDS011;2943;48.012;10.968;2024-02-14T09:17:05;2.10;;;1.40;;
5833;SDS011;2943;48.012;10.968;2024-02-14T09:19:32;1.50;;;1.40;;
5833;SDS011;2943;48.012;10.968;2024-02-14T09:22:01;1.93;;;1.50;;
5833;SDS011;2943;48.012;10.968;2024-02-14T09:24:31;2.13;;;1.33;;
5833;SDS011;2943;48.012;10.968;2024-02-14T09:26:59;1.63;;;1.53;;
5833;SDS011;2943;48.012;10.968;2024-02-14T09:29:27;1.77;;;1.67;;
5833;SDS011;2943;48.012;10.968;2024-02-14T09:31:54;2.50;;;1.47;;
5833;SDS011;2943;48.012;10.968;2024-02-14T09:34:21;4.23;;;1.40;;
5833;SDS011;2943;48.012;10.968;2024-02-14T09:36:48;1.90;;;1.70;;
5833;SDS011;2943;48.012;10.968;2024-02-14T09:39:16;1.97;;;1.67;;
5833;SDS011;2943;48.012;10.968;2024-02-14T09:41:43;1.67;;;1.50;;
5833;SDS011;2943;48.012;10.968;2024-02-14T09:44:12;1.67;;;1.57;;
5833;SDS011;2943;48.012;10.968;2024-02-14T09:46:39;1.63;;;1.50;;
5833;SDS011;2943;48.012;10.968;2024-02-14T09:49:08;1.50;;;1.40;;
5833;SDS011;2943;48.012;10.968;2024-02-14T09:51:36;1.87;;;1.40;;
5833;SDS011;2943;48.012;10.968;2024-02-14T09:54:05;2.20;;;1.43;;
5833;SDS011;2943;48.012;10.968;2024-02-14T09:56:36;1.73;;;1.63;;
5833;SDS011;2943;48.012;10.968;2024-02-14T09:59:03;2.13;;;1.40;;
5833;SDS011;2943;48.012;10.968;2024-02-14T10:01:31;1.53;;;1.37;;
5833;SDS011;2943;48.012;10.968;2024-02-14T10:03:58;1.50;;;1.30;;
5833;SDS011;2943;48.012;10.968;2024-02-14T10:06:26;2.00;;;1.40;;
5833;SDS011;2943;48.012;10.968;2024-02-14T10:08:53;2.60;;;1.83;;
5833;SDS011;2943;48.012;10.968;2024-02-14T10:11:23;1.50;;;1.40;;
5833;SDS011;2943;48.012;10.968;2024-02-14T10:13:54;1.63;;;1.40;;
5833;SDS011;2943;48.012;10.968;2024-02-14T10:16:25;1.60;;;1.50;;
5833;SDS011;2943;48.012;10.968;2024-02-14T10:18:53;4.00;;;1.90;;
5833;SDS011;2943;48.012;10.968;2024-02-14T10:21:21;1.90;;;1.70;;
5833;SDS011;2943;48.012;10.968;2024-02-14T10:23:50;1.60;;;1.50;;
5833;SDS011;2943;48.012;10.968;2024-02-14T10:26:18;1.70;;;1.60;;
5833;SDS011;2943;48.012;10.968;2024-02-14T10:28:45;2.50;;;1.80;;
5833;SDS011;2943;48.012;10.968;2024-02-14T10:31:13;2.53;;;1.70;;
5833;SDS011;2943;48.012;10.968;2024-02-14T10:33:41;1.60;;;1.50;;
5833;SDS011;2943;48.012;10.968;2024-02-14T10:36:08;1.83;;;1.63;;
5833;SDS011;2943;48.012;10.968;2024-02-14T10:38:35;1.87;;;1.50;;
5833;SDS011;2943;48.012;10.968;2024-02-14T10:41:03;1.30;;;1.20;;
5833;SDS011;2943;48.012;10.968;2024-02-14T10:43:32;4.00;;;1.53;;
5833;SDS011;2943;48.012;10.968;2024-02-14T10:46:00;1.47;;;1.37;;
5833;SDS011;2943;48.012;10.968;2024-02-14T10:48:35;3.53;;;1.37;;
5833;SDS011;2943;48.012;10.968;2024-02-14T10:51:08;2.13;;;1.50;;
5833;SDS011;2943;48.012;10.968;2024-02-14T10:53:36;2.33;;;1.30;;
5833;SDS011;2943;48.012;10.968;2024-02-14T10:56:09;1.30;;;1.20;;
5833;SDS011;2943;48.012;10.968;2024-02-14T10:58:42;1.60;;;1.40;;
5833;SDS011;2943;48.012;10.968;2024-02-14T11:01:12;2.17;;;1.60;;
5833;SDS011;2943;48.012;10.968;2024-02-14T11:03:43;3.67;;;1.50;;
5833;SDS011;2943;48.012;10.968;2024-02-14T11:06:15;1.87;;;1.57;;
5833;SDS011;2943;48.012;10.968;2024-02-14T11:08:42;1.73;;;1.63;;
5833;SDS011;2943;48.012;10.968;2024-02-14T11:11:21;2.03;;;1.30;;
5833;SDS011;2943;48.012;10.968;2024-02-14T11:13:51;3.93;;;1.30;;
5833;SDS011;2943;48.012;10.968;2024-02-14T11:16:22;1.53;;;1.40;;
5833;SDS011;2943;48.012;10.968;2024-02-14T11:18:54;1.53;;;1.27;;
5833;SDS011;2943;48.012;10.968;2024-02-14T11:21:35;1.40;;;1.30;;
5833;SDS011;2943;48.012;10.968;2024-02-14T11:24:06;2.17;;;1.50;;
5833;SDS011;2943;48.012;10.968;2024-02-14T11:26:40;4.40;;;1.47;;
5833;SDS011;2943;48.012;10.968;2024-02-14T11:29:14;2.97;;;1.30;;
5833;SDS011;2943;48.012;10.968;2024-02-14T11:31:42;2.60;;;1.40;;
5833;SDS011;2943;48.012;10.968;2024-02-14T11:34:12;1.83;;;1.47;;
5833;SDS011;2943;48.012;10.968;2024-02-14T11:36:39;1.90;;;1.73;;
5833;SDS011;2943;48.012;10.968;2024-02-14T11:39:08;2.40;;;1.60;;
5833;SDS011;2943;48.012;10.968;2024-02-14T11:41:37;1.80;;;1.60;;
5833;SDS011;2943;48.012;10.968;2024-02-14T11:44:05;2.80;;;1.97;;
5833;SDS011;2943;48.012;10.968;2024-02-14T11:46:32;2.27;;;1.40;;
5833;SDS011;2943;48.012;10.968;2024-02-14T11:49:01;1.93;;;1.70;;
5833;SDS011;2943;48.012;10.968;2024-02-14T11:51:30;1.90;;;1.60;;
5833;SDS011;2943;48.012;10.968;2024-02-14T11:53:59;3.30;;;1.80;;
5833;SDS011;2943;48.012;10.968;2024-02-14T11:56:29;3.00;;;1.57;;
5833;SDS011;2943;48.012;10.968;2024-02-14T11:58:59;4.37;;;1.60;;
5833;SDS011;2943;48.012;10.968;2024-02-14T12:01:28;2.93;;;1.60;;
5833;SDS011;2943;48.012;10.968;2024-02-14T12:03:56;1.77;;;1.60;;
5833;SDS011;2943;48.012;10.968;2024-02-14T12:06:24;2.43;;;1.40;;
5833;SDS011;2943;48.012;10.968;2024-02-14T12:08:52;1.67;;;1.57;;
5833;SDS011;2943;48.012;10.968;2024-02-14T12:11:19;1.57;;;1.40;;
5833;SDS011;2943;48.012;10.968;2024-02-14T12:13:48;1.37;;;1.27;;
5833;SDS011;2943;48.012;10.968;2024-02-14T12:16:16;2.03;;;1.57;;
5833;SDS011;2943;48.012;10.968;2024-02-14T12:18:46;1.80;;;1.50;;
5833;SDS011;2943;48.012;10.968;2024-02-14T12:21:13;1.60;;;1.50;;
5833;SDS011;2943;48.012;10.968;2024-02-14T12:23:40;1.50;;;1.40;;
5833;SDS011;2943;48.012;10.968;2024-02-14T12:26:09;4.97;;;1.70;;
5833;SDS011;2943;48.012;10.968;2024-02-14T12:28:45;1.73;;;1.40;;
5833;SDS011;2943;48.012;10.968;2024-02-14T12:31:21;1.83;;;1.30;;
5833;SDS011;2943;48.012;10.968;2024-02-14T12:33:48;1.60;;;1.30;;
5833;SDS011;2943;48.012;10.968;2024-02-14T12:36:17;1.50;;;1.33;;
5833;SDS011;2943;48.012;10.968;2024-02-14T12:38:44;1.80;;;1.57;;
5833;SDS011;2943;48.012;10.968;2024-02-14T12:41:15;1.30;;;1.17;;
5833;SDS011;2943;48.012;10.968;2024-02-14T12:43:42;1.97;;;1.60;;
5833;SDS011;2943;48.012;10.968;2024-02-14T12:46:10;1.83;;;1.50;;
5833;SDS011;2943;48.012;10.968;2024-02-14T12:48:37;1.50;;;1.40;;
5833;SDS011;2943;48.012;10.968;2024-02-14T12:51:04;1.67;;;1.57;;
5833;SDS011;2943;48.012;10.968;2024-02-14T12:53:32;2.67;;;1.27;;
5833;SDS011;2943;48.012;10.968;2024-02-14T12:55:59;2.70;;;1.60;;
5833;SDS011;2943;48.012;10.968;2024-02-14T12:58:28;1.70;;;1.45;;
5833;SDS011;2943;48.012;10.968;2024-02-14T13:00:57;9.33;;;1.50;;
5833;SDS011;2943;48.012;10.968;2024-02-14T13:03:26;1.47;;;1.37;;
5833;SDS011;2943;48.012;10.968;2024-02-14T13:05:53;1.40;;;1.30;;
5833;SDS011;2943;48.012;10.968;2024-02-14T13:08:20;2.20;;;1.23;;
5833;SDS011;2943;48.012;10.968;2024-02-14T13:10:48;1.40;;;1.30;;
5833;SDS011;2943;48.012;10.968;2024-02-14T13:13:15;1.40;;;1.30;;
5833;SDS011;2943;48.012;10.968;2024-02-14T13:15:44;2.33;;;1.30;;
5833;SDS011;2943;48.012;10.968;2024-02-14T13:18:11;1.33;;;1.20;;
5833;SDS011;2943;48.012;10.968;2024-02-14T13:20:38;1.50;;;1.20;;
5833;SDS011;2943;48.012;10.968;2024-02-14T13:23:04;1.50;;;1.40;;
5833;SDS011;2943;48.012;10.968;2024-02-14T13:25:33;1.83;;;1.60;;
5833;SDS011;2943;48.012;10.968;2024-02-14T13:28:02;1.53;;;1.10;;
5833;SDS011;2943;48.012;10.968;2024-02-14T13:30:30;1.50;;;1.40;;
5833;SDS011;2943;48.012;10.968;2024-02-14T13:32:58;1.90;;;1.50;;
5833;SDS011;2943;48.012;10.968;2024-02-14T13:35:26;1.37;;;1.27;;
5833;SDS011;2943;48.012;10.968;2024-02-14T13:37:54;1.60;;;1.40;;
5833;SDS011;2943;48.012;10.968;2024-02-14T13:40:22;1.93;;;1.67;;
5833;SDS011;2943;48.012;10.968;2024-02-14T13:42:48;2.17;;;1.30;;
5833;SDS011;2943;48.012;10.968;2024-02-14T13:45:15;1.40;;;1.30;;
5833;SDS011;2943;48.012;10.968;2024-02-14T13:47:42;1.30;;;1.20;;
5833;SDS011;2943;48.012;10.968;2024-02-14T13:50:11;1.27;;;1.17;;
5833;SDS011;2943;48.012;10.968;2024-02-14T13:52:38;1.33;;;1.23;;
5833;SDS011;2943;48.012;10.968;2024-02-14T13:55:05;1.47;;;1.37;;
5833;SDS011;2943;48.012;10.968;2024-02-14T13:57:33;1.40;;;1.30;;
5833;SDS011;2943;48.012;10.968;2024-02-14T14:00:03;1.50;;;1.40;;
5833;SDS011;2943;48.012;10.968;2024-02-14T14:02:31;2.20;;;1.40;;
5833;SDS011;2943;48.012;10.968;2024-02-14T14:04:57;4.40;;;1.43;;
5833;SDS011;2943;48.012;10.968;2024-02-14T14:07:26;2.43;;;1.20;;
5833;SDS011;2943;48.012;10.968;2024-02-14T14:09:52;1.20;;;1.10;;
5833;SDS011;2943;48.012;10.968;2024-02-14T14:12:19;1.67;;;1.57;;
5833;SDS011;2943;48.012;10.968;2024-02-14T14:14:46;1.83;;;1.30;;
5833;SDS011;2943;48.012;10.968;2024-02-14T14:17:13;1.10;;;1.00;;
5833;SDS011;2943;48.012;10.968;2024-02-14T14:19:40;6.53;;;1.50;;
5833;SDS011;2943;48.012;10.968;2024-02-14T14:22:07;1.57;;;1.40;;
5833;SDS011;2943;48.012;10.968;2024-02-14T14:24:37;1.50;;;1.40;;
5833;SDS011;2943;48.012;10.968;2024-02-14T14:27:04;1.50;;;1.40;;
5833;SDS011;2943;48.012;10.968;2024-02-14T14:29:33;1.40;;;1.30;;
5833;SDS011;2943;48.012;10.968;2024-02-14T14:32:00;1.47;;;1.37;;
5833;SDS011;2943;48.012;10.968;2024-02-14T14:34:28;1.83;;;1.73;;
5833;SDS011;2943;48.012;10.968;2024-02-14T14:36:55;1.33;;;1.23;;
5833;SDS011;2943;48.012;10.968;2024-02-14T14:39:22;2.93;;;1.30;;
5833;SDS011;2943;48.012;10.968;2024-02-14T14:41:51;1.60;;;1.50;;
5833;SDS011;2943;48.012;10.968;2024-02-14T14:44:19;1.47;;;1.37;;
5833;SDS011;2943;48.012;10.968;2024-02-14T14:46:45;1.73;;;1.60;;
5833;SDS011;2943;48.012;10.968;2024-02-14T14:49:12;4.47;;;2.40;;
5833;SDS011;2943;48.012;10.968;2024-02-14T14:51:39;1.40;;;1.30;;
5833;SDS011;2943;48.012;10.968;2024-02-14T14:54:06;1.40;;;1.30;;
5833;SDS011;2943;48.012;10.968;2024-02-14T14:56:33;2.00;;;1.90;;
5833;SDS011;2943;48.012;10.968;2024-02-14T14:59:01;1.50;;;1.33;;
5833;SDS011;2943;48.012;10.968;2024-02-14T15:01:31;3.73;;;1.50;;
5833;SDS011;2943;48.012;10.968;2024-02-14T15:03:59;1.53;;;1.43;;
5833;SDS011;2943;48.012;10.968;2024-02-14T15:06:26;2.20;;;1.40;;
5833;SDS011;2943;48.012;10.968;2024-02-14T15:08:53;1.57;;;1.33;;
5833;SDS011;2943;48.012;10.968;2024-02-14T15:11:20;2.57;;;1.33;;